sensor_id;sensor_type;location;lat;lon;timestamp;P1;durP1;ratioP1;P2;durP2;ratioP2
3922;SDS011;1976;51.694;6.256;2022-07-23T00:01:36;3.47;;;3.10;;
3922;SDS011;1976;51.694;6.256;2022-07-23T00:04:02;5.87;;;2.90;;
3922;SDS011;1976;51.694;6.256;2022-07-23T00:06:28;4.20;;;3.53;;
3922;SDS011;1976;51.694;6.256;2022-07-23T00:08:53;4.20;;;2.90;;
3922;SDS011;1976;51.694;6.256;2022-07-23T00:11:19;8.73;;;3.40;;
3922;SDS011;1976;51.694;6.256;2022-07-23T00:13:47;6.13;;;3.00;;
3922;SDS011;1976;51.694;6.256;2022-07-23T00:16:12;5.60;;;3.63;;
3922;SDS011;1976;51.694;6.256;2022-07-23T00:18:38;11.83;;;3.27;;
3922;SDS011;1976;51.694;6.256;2022-07-23T00:21:04;5.80;;;3.67;;
3922;SDS011;1976;51.694;6.256;2022-07-23T00:23:29;5.53;;;3.80;;
3922;SDS011;1976;51.694;6.256;2022-07-23T00:25:55;3.47;;;3.00;;
3922;SDS011;1976;51.694;6.256;2022-07-23T00:28:21;8.03;;;4.10;;
3922;SDS011;1976;51.694;6.256;2022-07-23T00:30:47;4.97;;;3.53;;
3922;SDS011;1976;51.694;6.256;2022-07-23T00:33:12;10.43;;;3.50;;
3922;SDS011;1976;51.694;6.256;2022-07-23T00:35:39;5.73;;;3.87;;
3922;SDS011;1976;51.694;6.256;2022-07-23T00:38:07;7.63;;;3.80;;
3922;SDS011;1976;51.694;6.256;2022-07-23T00:40:35;4.13;;;3.50;;
3922;SDS011;1976;51.694;6.256;2022-07-23T00:43:01;6.77;;;3.57;;
3922;SDS011;1976;51.694;6.256;2022-07-23T00:45:27;7.20;;;3.97;;
3922;SDS011;1976;51.694;6.256;2022-07-23T00:47:53;7.20;;;3.47;;
3922;SDS011;1976;51.694;6.256;2022-07-23T00:50:19;8.13;;;3.70;;
3922;SDS011;1976;51.694;6.256;2022-07-23T00:52:45;6.07;;;3.93;;
3922;SDS011;1976;51.694;6.256;2022-07-23T00:55:11;5.30;;;3.73;;
3922;SDS011;1976;51.694;6.256;2022-07-23T00:57:37;4.87;;;3.90;;
3922;SDS011;1976;51.694;6.256;2022-07-23T01:00:08;9.20;;;4.13;;
3922;SDS011;1976;51.694;6.256;2022-07-23T01:02:36;6.00;;;2.83;;
3922;SDS011;1976;51.694;6.256;2022-07-23T01:05:02;4.23;;;3.63;;
3922;SDS011;1976;51.694;6.256;2022-07-23T01:07:28;8.50;;;3.60;;
3922;SDS011;1976;51.694;6.256;2022-07-23T01:09:55;5.47;;;3.90;;
3922;SDS011;1976;51.694;6.256;2022-07-23T01:12:21;6.27;;;3.90;;
3922;SDS011;1976;51.694;6.256;2022-07-23T01:14:53;6.20;;;4.07;;
3922;SDS011;1976;51.694;6.256;2022-07-23T01:17:20;5.80;;;3.90;;
3922;SDS011;1976;51.694;6.256;2022-07-23T01:19:46;4.93;;;3.90;;
3922;SDS011;1976;51.694;6.256;2022-07-23T01:22:11;11.00;;;4.17;;
3922;SDS011;1976;51.694;6.256;2022-07-23T01:24:38;4.37;;;3.43;;
3922;SDS011;1976;51.694;6.256;2022-07-23T01:27:03;8.63;;;3.90;;
3922;SDS011;1976;51.694;6.256;2022-07-23T01:29:30;13.27;;;4.67;;
3922;SDS011;1976;51.694;6.256;2022-07-23T01:31:56;9.23;;;4.50;;
3922;SDS011;1976;51.694;6.256;2022-07-23T01:34:21;7.03;;;4.50;;
3922;SDS011;1976;51.694;6.256;2022-07-23T01:36:47;4.40;;;4.00;;
3922;SDS011;1976;51.694;6.256;2022-07-23T01:39:13;7.90;;;4.50;;
3922;SDS011;1976;51.694;6.256;2022-07-23T01:41:38;5.70;;;4.47;;
3922;SDS011;1976;51.694;6.256;2022-07-23T01:44:04;9.93;;;4.70;;
3922;SDS011;1976;51.694;6.256;2022-07-23T01:46:30;4.30;;;3.70;;
3922;SDS011;1976;51.694;6.256;2022-07-23T01:48:55;4.70;;;4.00;;
3922;SDS011;1976;51.694;6.256;2022-07-23T01:51:21;9.20;;;5.10;;
3922;SDS011;1976;51.694;6.256;2022-07-23T01:53:47;8.10;;;4.27;;
3922;SDS011;1976;51.694;6.256;2022-07-23T01:56:12;9.07;;;4.70;;
3922;SDS011;1976;51.694;6.256;2022-07-23T01:58:40;18.47;;;4.70;;
3922;SDS011;1976;51.694;6.256;2022-07-23T02:01:06;5.33;;;4.30;;
3922;SDS011;1976;51.694;6.256;2022-07-23T02:03:31;4.97;;;4.03;;
3922;SDS011;1976;51.694;6.256;2022-07-23T02:05:57;5.50;;;4.57;;
3922;SDS011;1976;51.694;6.256;2022-07-23T02:08:23;8.00;;;4.60;;
3922;SDS011;1976;51.694;6.256;2022-07-23T02:10:48;9.83;;;4.47;;
3922;SDS011;1976;51.694;6.256;2022-07-23T02:13:16;6.43;;;4.10;;
3922;SDS011;1976;51.694;6.256;2022-07-23T02:15:42;7.27;;;4.40;;
3922;SDS011;1976;51.694;6.256;2022-07-23T02:18:08;11.90;;;4.87;;
3922;SDS011;1976;51.694;6.256;2022-07-23T02:20:34;10.23;;;4.80;;
3922;SDS011;1976;51.694;6.256;2022-07-23T02:22:59;6.67;;;4.50;;
3922;SDS011;1976;51.694;6.256;2022-07-23T02:25:25;8.10;;;4.30;;
3922;SDS011;1976;51.694;6.256;2022-07-23T02:27:51;8.80;;;4.30;;
3922;SDS011;1976;51.694;6.256;2022-07-23T02:30:16;8.30;;;4.37;;
3922;SDS011;1976;51.694;6.256;2022-07-23T02:32:42;7.40;;;4.40;;
3922;SDS011;1976;51.694;6.256;2022-07-23T02:35:07;6.77;;;4.13;;
3922;SDS011;1976;51.694;6.256;2022-07-23T02:37:33;11.93;;;4.87;;
3922;SDS011;1976;51.694;6.256;2022-07-23T02:39:59;5.93;;;3.73;;
3922;SDS011;1976;51.694;6.256;2022-07-23T02:42:25;11.27;;;4.13;;
3922;SDS011;1976;51.694;6.256;2022-07-23T02:44:51;5.40;;;4.20;;
3922;SDS011;1976;51.694;6.256;2022-07-23T02:47:17;5.17;;;4.67;;
3922;SDS011;1976;51.694;6.256;2022-07-23T02:49:42;5.73;;;4.90;;
3922;SDS011;1976;51.694;6.256;2022-07-23T02:52:08;6.60;;;4.87;;
3922;SDS011;1976;51.694;6.256;2022-07-23T02:54:35;8.40;;;5.23;;
3922;SDS011;1976;51.694;6.256;2022-07-23T02:57:01;9.13;;;5.33;;
3922;SDS011;1976;51.694;6.256;2022-07-23T02:59:27;5.53;;;4.87;;
3922;SDS011;1976;51.694;6.256;2022-07-23T03:01:53;16.10;;;5.13;;
3922;SDS011;1976;51.694;6.256;2022-07-23T03:04:18;8.53;;;5.13;;
3922;SDS011;1976;51.694;6.256;2022-07-23T03:06:44;4.87;;;4.30;;
3922;SDS011;1976;51.694;6.256;2022-07-23T03:09:10;16.40;;;5.17;;
3922;SDS011;1976;51.694;6.256;2022-07-23T03:11:35;9.53;;;5.37;;
3922;SDS011;1976;51.694;6.256;2022-07-23T03:14:01;11.57;;;5.03;;
3922;SDS011;1976;51.694;6.256;2022-07-23T03:16:26;6.20;;;4.93;;
3922;SDS011;1976;51.694;6.256;2022-07-23T03:18:52;7.43;;;5.23;;
3922;SDS011;1976;51.694;6.256;2022-07-23T03:21:18;5.60;;;5.00;;
3922;SDS011;1976;51.694;6.256;2022-07-23T03:23:44;5.50;;;4.30;;
3922;SDS011;1976;51.694;6.256;2022-07-23T03:26:09;7.33;;;4.40;;
3922;SDS011;1976;51.694;6.256;2022-07-23T03:28:35;8.50;;;5.50;;
3922;SDS011;1976;51.694;6.256;2022-07-23T03:31:01;6.43;;;5.10;;
3922;SDS011;1976;51.694;6.256;2022-07-23T03:33:26;5.70;;;4.90;;
3922;SDS011;1976;51.694;6.256;2022-07-23T03:35:52;7.73;;;5.50;;
3922;SDS011;1976;51.694;6.256;2022-07-23T03:38:17;12.53;;;5.80;;
3922;SDS011;1976;51.694;6.256;2022-07-23T03:40:43;5.57;;;5.00;;
3922;SDS011;1976;51.694;6.256;2022-07-23T03:43:09;5.73;;;5.20;;
3922;SDS011;1976;51.694;6.256;2022-07-23T03:45:34;16.13;;;6.30;;
3922;SDS011;1976;51.694;6.256;2022-07-23T03:48:00;7.40;;;5.60;;
3922;SDS011;1976;51.694;6.256;2022-07-23T03:50:26;6.60;;;5.53;;
3922;SDS011;1976;51.694;6.256;2022-07-23T03:52:51;6.53;;;5.43;;
3922;SDS011;1976;51.694;6.256;2022-07-23T03:55:17;7.90;;;5.00;;
3922;SDS011;1976;51.694;6.256;2022-07-23T03:57:43;6.20;;;5.60;;
3922;SDS011;1976;51.694;6.256;2022-07-23T04:00:10;9.47;;;5.87;;
3922;SDS011;1976;51.694;6.256;2022-07-23T04:02:37;9.03;;;5.70;;
3922;SDS011;1976;51.694;6.256;2022-07-23T04:05:03;7.50;;;5.77;;
3922;SDS011;1976;51.694;6.256;2022-07-23T04:07:29;8.87;;;6.67;;
3922;SDS011;1976;51.694;6.256;2022-07-23T04:09:55;12.87;;;5.20;;
3922;SDS011;1976;51.694;6.256;2022-07-23T04:12:20;7.20;;;5.50;;
3922;SDS011;1976;51.694;6.256;2022-07-23T04:14:46;7.07;;;5.03;;
3922;SDS011;1976;51.694;6.256;2022-07-23T04:17:12;9.73;;;6.07;;
3922;SDS011;1976;51.694;6.256;2022-07-23T04:19:37;8.63;;;5.20;;
3922;SDS011;1976;51.694;6.256;2022-07-23T04:22:06;7.93;;;6.43;;
3922;SDS011;1976;51.694;6.256;2022-07-23T04:24:33;11.00;;;6.50;;
3922;SDS011;1976;51.694;6.256;2022-07-23T04:26:59;7.30;;;5.40;;
3922;SDS011;1976;51.694;6.256;2022-07-23T04:29:25;9.47;;;5.23;;
3922;SDS011;1976;51.694;6.256;2022-07-23T04:31:50;13.03;;;5.20;;
3922;SDS011;1976;51.694;6.256;2022-07-23T04:34:16;10.00;;;5.33;;
3922;SDS011;1976;51.694;6.256;2022-07-23T04:36:42;9.57;;;6.70;;
3922;SDS011;1976;51.694;6.256;2022-07-23T04:39:08;12.90;;;5.73;;
3922;SDS011;1976;51.694;6.256;2022-07-23T04:41:33;8.33;;;6.13;;
3922;SDS011;1976;51.694;6.256;2022-07-23T04:43:59;7.03;;;5.47;;
3922;SDS011;1976;51.694;6.256;2022-07-23T04:46:26;10.40;;;5.73;;
3922;SDS011;1976;51.694;6.256;2022-07-23T04:48:51;7.17;;;5.83;;
3922;SDS011;1976;51.694;6.256;2022-07-23T04:51:17;8.03;;;6.03;;
3922;SDS011;1976;51.694;6.256;2022-07-23T04:53:43;13.10;;;6.40;;
3922;SDS011;1976;51.694;6.256;2022-07-23T04:56:08;11.30;;;7.20;;
3922;SDS011;1976;51.694;6.256;2022-07-23T04:58:34;8.47;;;6.07;;
3922;SDS011;1976;51.694;6.256;2022-07-23T05:01:00;7.03;;;5.87;;
3922;SDS011;1976;51.694;6.256;2022-07-23T05:03:26;8.63;;;5.90;;
3922;SDS011;1976;51.694;6.256;2022-07-23T05:05:52;15.60;;;6.67;;
3922;SDS011;1976;51.694;6.256;2022-07-23T05:08:17;10.53;;;6.60;;
3922;SDS011;1976;51.694;6.256;2022-07-23T05:10:43;10.30;;;6.37;;
3922;SDS011;1976;51.694;6.256;2022-07-23T05:13:09;9.50;;;6.70;;
3922;SDS011;1976;51.694;6.256;2022-07-23T05:15:34;8.40;;;6.73;;
3922;SDS011;1976;51.694;6.256;2022-07-23T05:18:00;7.57;;;6.20;;
3922;SDS011;1976;51.694;6.256;2022-07-23T05:20:26;8.20;;;6.43;;
3922;SDS011;1976;51.694;6.256;2022-07-23T05:22:52;6.90;;;5.70;;
3922;SDS011;1976;51.694;6.256;2022-07-23T05:25:17;7.30;;;6.60;;
3922;SDS011;1976;51.694;6.256;2022-07-23T05:27:43;10.00;;;7.03;;
3922;SDS011;1976;51.694;6.256;2022-07-23T05:30:09;7.83;;;5.90;;
3922;SDS011;1976;51.694;6.256;2022-07-23T05:32:35;20.73;;;6.00;;
3922;SDS011;1976;51.694;6.256;2022-07-23T05:35:02;12.30;;;6.73;;
3922;SDS011;1976;51.694;6.256;2022-07-23T05:37:29;8.47;;;6.43;;
3922;SDS011;1976;51.694;6.256;2022-07-23T05:39:54;8.83;;;6.50;;
3922;SDS011;1976;51.694;6.256;2022-07-23T05:42:20;8.60;;;6.60;;
3922;SDS011;1976;51.694;6.256;2022-07-23T05:44:46;8.20;;;5.50;;
3922;SDS011;1976;51.694;6.256;2022-07-23T05:47:12;12.70;;;6.70;;
3922;SDS011;1976;51.694;6.256;2022-07-23T05:49:37;7.47;;;5.90;;
3922;SDS011;1976;51.694;6.256;2022-07-23T05:52:04;13.17;;;6.20;;
3922;SDS011;1976;51.694;6.256;2022-07-23T05:54:33;7.43;;;6.17;;
3922;SDS011;1976;51.694;6.256;2022-07-23T05:57:00;8.67;;;5.57;;
3922;SDS011;1976;51.694;6.256;2022-07-23T05:59:26;11.30;;;6.63;;
3922;SDS011;1976;51.694;6.256;2022-07-23T06:01:51;9.33;;;5.87;;
3922;SDS011;1976;51.694;6.256;2022-07-23T06:04:17;11.93;;;5.97;;
3922;SDS011;1976;51.694;6.256;2022-07-23T06:06:43;15.13;;;5.90;;
3922;SDS011;1976;51.694;6.256;2022-07-23T06:09:09;7.80;;;5.23;;
3922;SDS011;1976;51.694;6.256;2022-07-23T06:11:35;10.17;;;6.10;;
3922;SDS011;1976;51.694;6.256;2022-07-23T06:14:01;9.33;;;6.67;;
3922;SDS011;1976;51.694;6.256;2022-07-23T06:16:27;21.23;;;7.90;;
3922;SDS011;1976;51.694;6.256;2022-07-23T06:18:53;9.47;;;5.97;;
3922;SDS011;1976;51.694;6.256;2022-07-23T06:21:19;8.50;;;5.30;;
3922;SDS011;1976;51.694;6.256;2022-07-23T06:23:44;12.90;;;6.17;;
3922;SDS011;1976;51.694;6.256;2022-07-23T06:26:10;7.00;;;5.50;;
3922;SDS011;1976;51.694;6.256;2022-07-23T06:28:35;7.50;;;6.03;;
3922;SDS011;1976;51.694;6.256;2022-07-23T06:31:01;10.57;;;5.60;;
3922;SDS011;1976;51.694;6.256;2022-07-23T06:33:27;10.47;;;5.90;;
3922;SDS011;1976;51.694;6.256;2022-07-23T06:35:52;7.77;;;5.80;;
3922;SDS011;1976;51.694;6.256;2022-07-23T06:38:18;17.70;;;5.43;;
3922;SDS011;1976;51.694;6.256;2022-07-23T06:40:44;8.90;;;4.97;;
3922;SDS011;1976;51.694;6.256;2022-07-23T06:43:10;8.87;;;5.00;;
3922;SDS011;1976;51.694;6.256;2022-07-23T06:45:36;10.83;;;4.87;;
3922;SDS011;1976;51.694;6.256;2022-07-23T06:48:01;5.33;;;4.00;;
3922;SDS011;1976;51.694;6.256;2022-07-23T06:50:28;9.10;;;4.20;;
3922;SDS011;1976;51.694;6.256;2022-07-23T06:52:54;4.23;;;3.83;;
3922;SDS011;1976;51.694;6.256;2022-07-23T06:55:20;13.60;;;4.03;;
3922;SDS011;1976;51.694;6.256;2022-07-23T06:57:45;17.90;;;3.20;;
3922;SDS011;1976;51.694;6.256;2022-07-23T07:00:11;4.80;;;4.07;;
3922;SDS011;1976;51.694;6.256;2022-07-23T07:02:37;4.87;;;3.90;;
3922;SDS011;1976;51.694;6.256;2022-07-23T07:05:03;6.47;;;3.90;;
3922;SDS011;1976;51.694;6.256;2022-07-23T07:07:29;4.70;;;3.50;;
3922;SDS011;1976;51.694;6.256;2022-07-23T07:09:54;4.30;;;3.20;;
3922;SDS011;1976;51.694;6.256;2022-07-23T07:12:20;4.00;;;3.50;;
3922;SDS011;1976;51.694;6.256;2022-07-23T07:14:46;5.33;;;3.40;;
3922;SDS011;1976;51.694;6.256;2022-07-23T07:17:11;5.03;;;3.40;;
3922;SDS011;1976;51.694;6.256;2022-07-23T07:19:37;12.70;;;3.57;;
3922;SDS011;1976;51.694;6.256;2022-07-23T07:22:02;7.07;;;3.50;;
3922;SDS011;1976;51.694;6.256;2022-07-23T07:24:28;9.70;;;3.63;;
3922;SDS011;1976;51.694;6.256;2022-07-23T07:26:54;25.83;;;3.63;;
3922;SDS011;1976;51.694;6.256;2022-07-23T07:29:19;4.10;;;3.00;;
3922;SDS011;1976;51.694;6.256;2022-07-23T07:31:45;8.87;;;2.70;;
3922;SDS011;1976;51.694;6.256;2022-07-23T07:34:11;5.97;;;3.40;;
3922;SDS011;1976;51.694;6.256;2022-07-23T07:36:36;6.37;;;3.27;;
3922;SDS011;1976;51.694;6.256;2022-07-23T07:39:05;3.13;;;2.83;;
3922;SDS011;1976;51.694;6.256;2022-07-23T07:41:32;2.57;;;2.37;;
3922;SDS011;1976;51.694;6.256;2022-07-23T07:43:58;6.57;;;2.60;;
3922;SDS011;1976;51.694;6.256;2022-07-23T07:46:24;3.00;;;2.70;;
3922;SDS011;1976;51.694;6.256;2022-07-23T07:48:52;3.53;;;2.53;;
3922;SDS011;1976;51.694;6.256;2022-07-23T07:51:18;3.90;;;2.80;;
3922;SDS011;1976;51.694;6.256;2022-07-23T07:53:44;4.20;;;2.90;;
3922;SDS011;1976;51.694;6.256;2022-07-23T07:56:10;7.20;;;2.03;;
3922;SDS011;1976;51.694;6.256;2022-07-23T07:58:36;5.20;;;2.50;;
3922;SDS011;1976;51.694;6.256;2022-07-23T08:01:01;8.23;;;2.80;;
3922;SDS011;1976;51.694;6.256;2022-07-23T08:03:27;5.10;;;2.83;;
3922;SDS011;1976;51.694;6.256;2022-07-23T08:05:53;6.10;;;3.53;;
3922;SDS011;1976;51.694;6.256;2022-07-23T08:08:19;6.10;;;3.43;;
3922;SDS011;1976;51.694;6.256;2022-07-23T08:10:45;5.37;;;2.87;;
3922;SDS011;1976;51.694;6.256;2022-07-23T08:13:14;13.30;;;3.17;;
3922;SDS011;1976;51.694;6.256;2022-07-23T08:15:41;12.87;;;4.10;;
3922;SDS011;1976;51.694;6.256;2022-07-23T08:18:07;6.73;;;3.30;;
3922;SDS011;1976;51.694;6.256;2022-07-23T08:20:33;4.73;;;3.20;;
3922;SDS011;1976;51.694;6.256;2022-07-23T08:23:03;7.40;;;3.43;;
3922;SDS011;1976;51.694;6.256;2022-07-23T08:25:31;9.03;;;3.07;;
3922;SDS011;1976;51.694;6.256;2022-07-23T08:27:58;5.60;;;2.63;;
3922;SDS011;1976;51.694;6.256;2022-07-23T08:30:25;11.93;;;2.70;;
3922;SDS011;1976;51.694;6.256;2022-07-23T08:35:17;5.70;;;3.17;;
3922;SDS011;1976;51.694;6.256;2022-07-23T08:37:47;2.60;;;2.40;;
3922;SDS011;1976;51.694;6.256;2022-07-23T08:40:13;8.43;;;2.80;;
3922;SDS011;1976;51.694;6.256;2022-07-23T08:42:39;6.23;;;2.90;;
3922;SDS011;1976;51.694;6.256;2022-07-23T08:45:05;3.93;;;2.73;;
3922;SDS011;1976;51.694;6.256;2022-07-23T08:47:33;4.97;;;3.07;;
3922;SDS011;1976;51.694;6.256;2022-07-23T08:49:59;3.30;;;3.10;;
3922;SDS011;1976;51.694;6.256;2022-07-23T08:52:26;2.93;;;2.50;;
3922;SDS011;1976;51.694;6.256;2022-07-23T08:54:52;3.70;;;2.83;;
3922;SDS011;1976;51.694;6.256;2022-07-23T08:57:18;4.90;;;2.20;;
3922;SDS011;1976;51.694;6.256;2022-07-23T08:59:44;8.00;;;3.00;;
3922;SDS011;1976;51.694;6.256;2022-07-23T09:02:10;6.27;;;2.90;;
3922;SDS011;1976;51.694;6.256;2022-07-23T09:04:36;5.17;;;2.60;;
3922;SDS011;1976;51.694;6.256;2022-07-23T09:07:02;2.93;;;2.30;;
3922;SDS011;1976;51.694;6.256;2022-07-23T09:09:27;5.50;;;2.30;;
3922;SDS011;1976;51.694;6.256;2022-07-23T09:12:02;5.33;;;2.50;;
3922;SDS011;1976;51.694;6.256;2022-07-23T09:15:02;8.63;;;2.30;;
3922;SDS011;1976;51.694;6.256;2022-07-23T09:17:28;2.87;;;2.17;;
3922;SDS011;1976;51.694;6.256;2022-07-23T09:20:12;2.30;;;1.90;;
3922;SDS011;1976;51.694;6.256;2022-07-23T09:22:46;2.93;;;1.57;;
3922;SDS011;1976;51.694;6.256;2022-07-23T09:25:16;3.53;;;2.20;;
3922;SDS011;1976;51.694;6.256;2022-07-23T09:30:18;2.00;;;1.80;;
3922;SDS011;1976;51.694;6.256;2022-07-23T09:33:03;1.97;;;1.63;;
3922;SDS011;1976;51.694;6.256;2022-07-23T09:35:46;2.50;;;2.10;;
3922;SDS011;1976;51.694;6.256;2022-07-23T09:38:14;4.07;;;1.60;;
3922;SDS011;1976;51.694;6.256;2022-07-23T09:40:40;4.30;;;2.30;;
3922;SDS011;1976;51.694;6.256;2022-07-23T09:43:06;6.50;;;1.97;;
3922;SDS011;1976;51.694;6.256;2022-07-23T09:45:31;2.03;;;1.60;;
3922;SDS011;1976;51.694;6.256;2022-07-23T09:48:15;5.03;;;1.73;;
3922;SDS011;1976;51.694;6.256;2022-07-23T09:50:42;2.80;;;1.57;;
3922;SDS011;1976;51.694;6.256;2022-07-23T09:53:10;5.10;;;1.93;;
3922;SDS011;1976;51.694;6.256;2022-07-23T09:55:49;4.93;;;1.67;;
3922;SDS011;1976;51.694;6.256;2022-07-23T09:58:16;6.83;;;2.10;;
3922;SDS011;1976;51.694;6.256;2022-07-23T10:00:46;1.27;;;1.03;;
3922;SDS011;1976;51.694;6.256;2022-07-23T10:03:14;6.77;;;1.50;;
3922;SDS011;1976;51.694;6.256;2022-07-23T10:05:40;13.30;;;1.47;;
3922;SDS011;1976;51.694;6.256;2022-07-23T10:08:08;2.20;;;1.03;;
3922;SDS011;1976;51.694;6.256;2022-07-23T10:10:39;4.27;;;1.40;;
3922;SDS011;1976;51.694;6.256;2022-07-23T10:13:05;1.63;;;1.50;;
3922;SDS011;1976;51.694;6.256;2022-07-23T10:15:33;2.83;;;1.07;;
3922;SDS011;1976;51.694;6.256;2022-07-23T10:17:59;6.87;;;1.60;;
3922;SDS011;1976;51.694;6.256;2022-07-23T10:20:25;1.77;;;1.20;;
3922;SDS011;1976;51.694;6.256;2022-07-23T10:22:56;2.23;;;1.40;;
3922;SDS011;1976;51.694;6.256;2022-07-23T10:25:41;6.13;;;1.20;;
3922;SDS011;1976;51.694;6.256;2022-07-23T10:36:27;2.00;;;0.97;;
3922;SDS011;1976;51.694;6.256;2022-07-23T10:41:53;1.40;;;1.07;;
3922;SDS011;1976;51.694;6.256;2022-07-23T10:44:41;1.00;;;1.00;;
3922;SDS011;1976;51.694;6.256;2022-07-23T10:47:09;1.50;;;1.20;;
3922;SDS011;1976;51.694;6.256;2022-07-23T10:49:35;2.67;;;1.27;;
3922;SDS011;1976;51.694;6.256;2022-07-23T10:54:46;0.80;;;0.80;;
3922;SDS011;1976;51.694;6.256;2022-07-23T10:57:15;2.87;;;1.33;;
3922;SDS011;1976;51.694;6.256;2022-07-23T11:02:26;1.10;;;1.00;;
3922;SDS011;1976;51.694;6.256;2022-07-23T11:04:54;1.77;;;0.90;;
3922;SDS011;1976;51.694;6.256;2022-07-23T11:07:25;1.67;;;1.00;;
3922;SDS011;1976;51.694;6.256;2022-07-23T11:09:50;1.30;;;1.07;;
3922;SDS011;1976;51.694;6.256;2022-07-23T11:14:58;1.30;;;1.03;;
3922;SDS011;1976;51.694;6.256;2022-07-23T11:17:25;2.10;;;1.10;;
3922;SDS011;1976;51.694;6.256;2022-07-23T11:25:09;2.10;;;1.07;;
3922;SDS011;1976;51.694;6.256;2022-07-23T11:27:36;6.10;;;1.93;;
3922;SDS011;1976;51.694;6.256;2022-07-23T11:30:11;2.73;;;1.20;;
3922;SDS011;1976;51.694;6.256;2022-07-23T11:35:34;1.30;;;1.20;;
3922;SDS011;1976;51.694;6.256;2022-07-23T11:38:21;1.90;;;1.07;;
3922;SDS011;1976;51.694;6.256;2022-07-23T11:40:52;5.23;;;1.30;;
3922;SDS011;1976;51.694;6.256;2022-07-23T11:43:19;1.33;;;1.23;;
3922;SDS011;1976;51.694;6.256;2022-07-23T11:45:47;1.20;;;1.10;;
3922;SDS011;1976;51.694;6.256;2022-07-23T11:48:19;5.17;;;1.10;;
3922;SDS011;1976;51.694;6.256;2022-07-23T11:50:47;2.50;;;0.97;;
3922;SDS011;1976;51.694;6.256;2022-07-23T11:53:21;5.30;;;0.90;;
3922;SDS011;1976;51.694;6.256;2022-07-23T11:55:47;1.57;;;1.10;;
3922;SDS011;1976;51.694;6.256;2022-07-23T11:58:13;2.03;;;1.20;;
3922;SDS011;1976;51.694;6.256;2022-07-23T12:00:40;2.40;;;0.90;;
3922;SDS011;1976;51.694;6.256;2022-07-23T12:03:06;2.33;;;0.97;;
3922;SDS011;1976;51.694;6.256;2022-07-23T12:05:34;2.43;;;0.90;;
3922;SDS011;1976;51.694;6.256;2022-07-23T12:08:03;1.37;;;1.10;;
3922;SDS011;1976;51.694;6.256;2022-07-23T12:10:35;12.40;;;1.23;;
3922;SDS011;1976;51.694;6.256;2022-07-23T12:13:05;1.60;;;1.17;;
3922;SDS011;1976;51.694;6.256;2022-07-23T12:15:37;7.37;;;1.10;;
3922;SDS011;1976;51.694;6.256;2022-07-23T12:18:05;1.23;;;1.13;;
3922;SDS011;1976;51.694;6.256;2022-07-23T12:20:32;1.20;;;1.00;;
3922;SDS011;1976;51.694;6.256;2022-07-23T12:23:07;1.10;;;1.00;;
3922;SDS011;1976;51.694;6.256;2022-07-23T12:25:36;1.07;;;0.90;;
3922;SDS011;1976;51.694;6.256;2022-07-23T12:28:10;1.30;;;1.20;;
3922;SDS011;1976;51.694;6.256;2022-07-23T12:30:38;0.80;;;0.80;;
3922;SDS011;1976;51.694;6.256;2022-07-23T12:33:04;4.20;;;1.30;;
3922;SDS011;1976;51.694;6.256;2022-07-23T12:35:38;1.13;;;0.80;;
3922;SDS011;1976;51.694;6.256;2022-07-23T12:38:09;1.60;;;1.25;;
3922;SDS011;1976;51.694;6.256;2022-07-23T12:40:41;7.03;;;1.13;;
3922;SDS011;1976;51.694;6.256;2022-07-23T12:43:29;1.00;;;0.80;;
3922;SDS011;1976;51.694;6.256;2022-07-23T12:46:08;0.93;;;0.90;;
3922;SDS011;1976;51.694;6.256;2022-07-23T12:51:31;2.10;;;0.80;;
3922;SDS011;1976;51.694;6.256;2022-07-23T12:54:07;2.00;;;0.80;;
3922;SDS011;1976;51.694;6.256;2022-07-23T12:56:35;2.83;;;1.00;;
3922;SDS011;1976;51.694;6.256;2022-07-23T12:59:10;2.27;;;1.00;;
3922;SDS011;1976;51.694;6.256;2022-07-23T13:01:44;2.67;;;0.90;;
3922;SDS011;1976;51.694;6.256;2022-07-23T13:04:21;1.47;;;1.00;;
3922;SDS011;1976;51.694;6.256;2022-07-23T13:06:54;0.80;;;0.80;;
3922;SDS011;1976;51.694;6.256;2022-07-23T13:09:23;0.70;;;0.70;;
3922;SDS011;1976;51.694;6.256;2022-07-23T13:11:52;2.10;;;1.17;;
3922;SDS011;1976;51.694;6.256;2022-07-23T13:14:19;8.63;;;1.20;;
3922;SDS011;1976;51.694;6.256;2022-07-23T13:16:46;3.77;;;1.10;;
3922;SDS011;1976;51.694;6.256;2022-07-23T13:19:12;6.33;;;1.10;;
3922;SDS011;1976;51.694;6.256;2022-07-23T13:21:38;1.10;;;0.83;;
3922;SDS011;1976;51.694;6.256;2022-07-23T13:24:06;11.10;;;1.30;;
3922;SDS011;1976;51.694;6.256;2022-07-23T13:26:33;0.90;;;0.90;;
3922;SDS011;1976;51.694;6.256;2022-07-23T13:28:59;1.53;;;0.90;;
3922;SDS011;1976;51.694;6.256;2022-07-23T13:31:25;1.47;;;0.90;;
3922;SDS011;1976;51.694;6.256;2022-07-23T13:33:50;0.70;;;0.70;;
3922;SDS011;1976;51.694;6.256;2022-07-23T13:36:16;2.23;;;1.00;;
3922;SDS011;1976;51.694;6.256;2022-07-23T13:38:42;0.60;;;0.60;;
3922;SDS011;1976;51.694;6.256;2022-07-23T13:41:08;1.50;;;1.00;;
3922;SDS011;1976;51.694;6.256;2022-07-23T13:43:33;0.67;;;0.67;;
3922;SDS011;1976;51.694;6.256;2022-07-23T13:45:59;1.53;;;0.87;;
3922;SDS011;1976;51.694;6.256;2022-07-23T13:48:25;0.87;;;0.87;;
3922;SDS011;1976;51.694;6.256;2022-07-23T13:50:50;7.70;;;1.10;;
3922;SDS011;1976;51.694;6.256;2022-07-23T13:53:20;0.70;;;0.70;;
3922;SDS011;1976;51.694;6.256;2022-07-23T13:55:47;1.70;;;1.03;;
3922;SDS011;1976;51.694;6.256;2022-07-23T13:58:15;11.83;;;0.80;;
3922;SDS011;1976;51.694;6.256;2022-07-23T14:00:42;1.57;;;1.20;;
3922;SDS011;1976;51.694;6.256;2022-07-23T14:03:09;3.60;;;1.10;;
3922;SDS011;1976;51.694;6.256;2022-07-23T14:05:35;8.77;;;1.60;;
3922;SDS011;1976;51.694;6.256;2022-07-23T14:08:01;2.43;;;1.40;;
3922;SDS011;1976;51.694;6.256;2022-07-23T14:10:28;1.33;;;1.13;;
3922;SDS011;1976;51.694;6.256;2022-07-23T14:12:54;2.00;;;1.20;;
3922;SDS011;1976;51.694;6.256;2022-07-23T14:15:21;3.03;;;1.70;;
3922;SDS011;1976;51.694;6.256;2022-07-23T14:17:47;2.33;;;1.20;;
3922;SDS011;1976;51.694;6.256;2022-07-23T14:20:13;1.53;;;1.20;;
3922;SDS011;1976;51.694;6.256;2022-07-23T14:22:39;2.30;;;1.60;;
3922;SDS011;1976;51.694;6.256;2022-07-23T14:25:06;1.13;;;1.13;;
3922;SDS011;1976;51.694;6.256;2022-07-23T14:27:33;1.17;;;1.07;;
3922;SDS011;1976;51.694;6.256;2022-07-23T14:29:59;1.17;;;1.10;;
3922;SDS011;1976;51.694;6.256;2022-07-23T14:32:25;1.30;;;1.20;;
3922;SDS011;1976;51.694;6.256;2022-07-23T14:34:51;1.20;;;1.10;;
3922;SDS011;1976;51.694;6.256;2022-07-23T14:37:17;3.47;;;1.53;;
3922;SDS011;1976;51.694;6.256;2022-07-23T14:39:44;1.43;;;1.33;;
3922;SDS011;1976;51.694;6.256;2022-07-23T14:42:10;1.40;;;1.30;;
3922;SDS011;1976;51.694;6.256;2022-07-23T14:44:37;1.60;;;1.50;;
3922;SDS011;1976;51.694;6.256;2022-07-23T14:47:03;1.30;;;1.20;;
3922;SDS011;1976;51.694;6.256;2022-07-23T14:49:30;2.53;;;1.30;;
3922;SDS011;1976;51.694;6.256;2022-07-23T14:51:56;3.57;;;1.50;;
3922;SDS011;1976;51.694;6.256;2022-07-23T14:54:23;1.33;;;1.20;;
3922;SDS011;1976;51.694;6.256;2022-07-23T14:56:54;1.73;;;1.37;;
3922;SDS011;1976;51.694;6.256;2022-07-23T14:59:21;7.90;;;1.97;;
3922;SDS011;1976;51.694;6.256;2022-07-23T15:01:47;1.80;;;1.40;;
3922;SDS011;1976;51.694;6.256;2022-07-23T15:04:13;2.53;;;1.37;;
3922;SDS011;1976;51.694;6.256;2022-07-23T15:06:38;10.13;;;1.50;;
3922;SDS011;1976;51.694;6.256;2022-07-23T15:09:05;2.13;;;1.90;;
3922;SDS011;1976;51.694;6.256;2022-07-23T15:11:30;1.80;;;1.60;;
3922;SDS011;1976;51.694;6.256;2022-07-23T15:13:59;2.50;;;1.73;;
3922;SDS011;1976;51.694;6.256;2022-07-23T15:16:25;5.30;;;1.70;;
3922;SDS011;1976;51.694;6.256;2022-07-23T15:18:51;7.50;;;1.60;;
3922;SDS011;1976;51.694;6.256;2022-07-23T15:21:16;2.53;;;1.90;;
3922;SDS011;1976;51.694;6.256;2022-07-23T15:23:42;1.60;;;1.50;;
3922;SDS011;1976;51.694;6.256;2022-07-23T15:26:08;3.03;;;1.60;;
3922;SDS011;1976;51.694;6.256;2022-07-23T15:28:34;3.70;;;1.80;;
3922;SDS011;1976;51.694;6.256;2022-07-23T15:31:01;1.90;;;1.80;;
3922;SDS011;1976;51.694;6.256;2022-07-23T15:33:27;3.13;;;1.53;;
3922;SDS011;1976;51.694;6.256;2022-07-23T15:35:53;2.00;;;1.80;;
3922;SDS011;1976;51.694;6.256;2022-07-23T15:38:21;3.73;;;1.80;;
3922;SDS011;1976;51.694;6.256;2022-07-23T15:40:47;3.57;;;2.77;;
3922;SDS011;1976;51.694;6.256;2022-07-23T15:43:13;3.40;;;1.60;;
3922;SDS011;1976;51.694;6.256;2022-07-23T15:45:39;3.37;;;1.50;;
3922;SDS011;1976;51.694;6.256;2022-07-23T15:48:05;2.80;;;1.60;;